sensor_id;sensor_type;location;lat;lon;timestamp;P1;durP1;ratioP1;P2;durP2;ratioP2
1563;SDS011;775;51.958;7.976;2023-02-02T00:02:17;17.50;;;2.63;;
1563;SDS011;775;51.958;7.976;2023-02-02T00:04:44;16.17;;;1.60;;
1563;SDS011;775;51.958;7.976;2023-02-02T00:07:11;14.07;;;2.17;;
1563;SDS011;775;51.958;7.976;2023-02-02T00:09:38;19.17;;;2.53;;
1563;SDS011;775;51.958;7.976;2023-02-02T00:12:05;24.77;;;3.77;;
1563;SDS011;775;51.958;7.976;2023-02-02T00:14:32;17.07;;;3.00;;
1563;SDS011;775;51.958;7.976;2023-02-02T00:16:59;20.77;;;3.10;;
1563;SDS011;775;51.958;7.976;2023-02-02T00:19:29;18.20;;;2.40;;
1563;SDS011;775;51.958;7.976;2023-02-02T00:21:57;15.70;;;2.30;;
1563;SDS011;775;51.958;7.976;2023-02-02T00:24:24;17.53;;;2.80;;
1563;SDS011;775;51.958;7.976;2023-02-02T00:26:52;17.20;;;2.17;;
1563;SDS011;775;51.958;7.976;2023-02-02T00:29:20;15.00;;;3.30;;
1563;SDS011;775;51.958;7.976;2023-02-02T00:31:47;15.53;;;2.33;;
1563;SDS011;775;51.958;7.976;2023-02-02T00:34:14;14.37;;;2.30;;
1563;SDS011;775;51.958;7.976;2023-02-02T00:36:43;23.60;;;2.60;;
1563;SDS011;775;51.958;7.976;2023-02-02T00:39:13;16.80;;;3.67;;
1563;SDS011;775;51.958;7.976;2023-02-02T00:41:40;18.90;;;2.40;;
1563;SDS011;775;51.958;7.976;2023-02-02T00:44:07;16.27;;;2.80;;
1563;SDS011;775;51.958;7.976;2023-02-02T00:46:52;15.80;;;2.30;;
1563;SDS011;775;51.958;7.976;2023-02-02T00:49:19;11.70;;;2.00;;
1563;SDS011;775;51.958;7.976;2023-02-02T00:51:47;14.50;;;2.33;;
1563;SDS011;775;51.958;7.976;2023-02-02T00:54:14;13.13;;;2.33;;
1563;SDS011;775;51.958;7.976;2023-02-02T00:56:42;19.47;;;2.80;;
1563;SDS011;775;51.958;7.976;2023-02-02T00:59:09;16.47;;;2.10;;
1563;SDS011;775;51.958;7.976;2023-02-02T01:01:36;12.97;;;2.17;;
1563;SDS011;775;51.958;7.976;2023-02-02T01:04:03;17.93;;;2.30;;
1563;SDS011;775;51.958;7.976;2023-02-02T01:06:30;12.10;;;2.20;;
1563;SDS011;775;51.958;7.976;2023-02-02T01:08:59;12.43;;;1.80;;
1563;SDS011;775;51.958;7.976;2023-02-02T01:11:26;17.10;;;2.20;;
1563;SDS011;775;51.958;7.976;2023-02-02T01:13:54;12.90;;;1.80;;
1563;SDS011;775;51.958;7.976;2023-02-02T01:16:21;14.43;;;2.30;;
1563;SDS011;775;51.958;7.976;2023-02-02T01:18:49;15.30;;;2.40;;
1563;SDS011;775;51.958;7.976;2023-02-02T01:21:16;17.90;;;2.20;;
1563;SDS011;775;51.958;7.976;2023-02-02T01:23:43;18.37;;;2.30;;
1563;SDS011;775;51.958;7.976;2023-02-02T01:26:12;15.07;;;2.63;;
1563;SDS011;775;51.958;7.976;2023-02-02T01:28:39;12.00;;;1.83;;
1563;SDS011;775;51.958;7.976;2023-02-02T01:31:07;14.43;;;3.10;;
1563;SDS011;775;51.958;7.976;2023-02-02T01:33:35;12.60;;;1.80;;
1563;SDS011;775;51.958;7.976;2023-02-02T01:36:03;22.27;;;2.00;;
1563;SDS011;775;51.958;7.976;2023-02-02T01:38:30;14.23;;;2.03;;
1563;SDS011;775;51.958;7.976;2023-02-02T01:40:57;16.07;;;2.67;;
1563;SDS011;775;51.958;7.976;2023-02-02T01:43:27;13.63;;;2.10;;
1563;SDS011;775;51.958;7.976;2023-02-02T01:45:54;12.43;;;2.20;;
1563;SDS011;775;51.958;7.976;2023-02-02T01:48:23;12.70;;;1.73;;
1563;SDS011;775;51.958;7.976;2023-02-02T01:50:52;15.43;;;2.07;;
1563;SDS011;775;51.958;7.976;2023-02-02T01:53:21;16.53;;;2.83;;
1563;SDS011;775;51.958;7.976;2023-02-02T01:55:49;13.93;;;1.70;;
1563;SDS011;775;51.958;7.976;2023-02-02T01:58:17;16.47;;;3.07;;
1563;SDS011;775;51.958;7.976;2023-02-02T02:00:46;21.17;;;2.30;;
1563;SDS011;775;51.958;7.976;2023-02-02T02:03:14;15.87;;;2.37;;
1563;SDS011;775;51.958;7.976;2023-02-02T02:05:43;14.90;;;2.20;;
1563;SDS011;775;51.958;7.976;2023-02-02T02:08:12;13.87;;;2.40;;
1563;SDS011;775;51.958;7.976;2023-02-02T02:10:40;12.07;;;1.93;;
1563;SDS011;775;51.958;7.976;2023-02-02T02:13:07;14.57;;;2.20;;
1563;SDS011;775;51.958;7.976;2023-02-02T02:15:37;16.67;;;2.47;;
1563;SDS011;775;51.958;7.976;2023-02-02T02:18:27;15.80;;;2.40;;
1563;SDS011;775;51.958;7.976;2023-02-02T02:27:23;20.77;;;2.60;;
1563;SDS011;775;51.958;7.976;2023-02-02T02:30:02;14.43;;;2.43;;
1563;SDS011;775;51.958;7.976;2023-02-02T02:32:35;16.83;;;2.50;;
1563;SDS011;775;51.958;7.976;2023-02-02T02:35:06;14.03;;;2.37;;
1563;SDS011;775;51.958;7.976;2023-02-02T02:37:36;13.43;;;2.00;;
1563;SDS011;775;51.958;7.976;2023-02-02T02:40:07;13.37;;;1.83;;
1563;SDS011;775;51.958;7.976;2023-02-02T02:42:38;15.53;;;2.50;;
1563;SDS011;775;51.958;7.976;2023-02-02T02:45:06;13.70;;;2.50;;
1563;SDS011;775;51.958;7.976;2023-02-02T02:47:35;18.07;;;2.50;;
1563;SDS011;775;51.958;7.976;2023-02-02T02:50:02;15.93;;;2.50;;
1563;SDS011;775;51.958;7.976;2023-02-02T02:52:29;14.70;;;4.30;;
1563;SDS011;775;51.958;7.976;2023-02-02T02:54:57;12.87;;;2.53;;
1563;SDS011;775;51.958;7.976;2023-02-02T02:57:48;12.80;;;2.73;;
1563;SDS011;775;51.958;7.976;2023-02-02T03:00:22;15.53;;;2.67;;
1563;SDS011;775;51.958;7.976;2023-02-02T03:02:56;14.23;;;2.83;;
1563;SDS011;775;51.958;7.976;2023-02-02T03:05:28;21.23;;;3.33;;
1563;SDS011;775;51.958;7.976;2023-02-02T03:07:59;17.63;;;2.30;;
1563;SDS011;775;51.958;7.976;2023-02-02T03:10:29;15.47;;;2.57;;
1563;SDS011;775;51.958;7.976;2023-02-02T03:12:57;17.57;;;2.80;;
1563;SDS011;775;51.958;7.976;2023-02-02T03:15:24;14.70;;;2.80;;
1563;SDS011;775;51.958;7.976;2023-02-02T03:17:51;15.73;;;2.50;;
1563;SDS011;775;51.958;7.976;2023-02-02T03:20:20;19.83;;;3.10;;
1563;SDS011;775;51.958;7.976;2023-02-02T03:22:47;19.20;;;2.80;;
1563;SDS011;775;51.958;7.976;2023-02-02T03:25:14;17.20;;;3.47;;
1563;SDS011;775;51.958;7.976;2023-02-02T03:27:41;16.37;;;3.30;;
1563;SDS011;775;51.958;7.976;2023-02-02T03:30:09;17.20;;;2.77;;
1563;SDS011;775;51.958;7.976;2023-02-02T03:32:37;20.70;;;3.30;;
1563;SDS011;775;51.958;7.976;2023-02-02T03:35:05;17.23;;;2.67;;
1563;SDS011;775;51.958;7.976;2023-02-02T03:37:34;18.23;;;2.97;;
1563;SDS011;775;51.958;7.976;2023-02-02T03:40:01;17.27;;;3.00;;
1563;SDS011;775;51.958;7.976;2023-02-02T03:42:28;19.10;;;2.97;;
1563;SDS011;775;51.958;7.976;2023-02-02T03:44:55;18.53;;;3.27;;
1563;SDS011;775;51.958;7.976;2023-02-02T03:47:22;16.67;;;4.30;;
1563;SDS011;775;51.958;7.976;2023-02-02T03:49:49;15.30;;;2.83;;
1563;SDS011;775;51.958;7.976;2023-02-02T03:52:16;21.13;;;3.50;;
1563;SDS011;775;51.958;7.976;2023-02-02T03:54:45;19.43;;;2.87;;
1563;SDS011;775;51.958;7.976;2023-02-02T03:57:12;14.43;;;3.13;;
1563;SDS011;775;51.958;7.976;2023-02-02T03:59:39;19.60;;;3.07;;
1563;SDS011;775;51.958;7.976;2023-02-02T04:02:06;17.53;;;2.93;;
1563;SDS011;775;51.958;7.976;2023-02-02T04:04:33;15.03;;;3.30;;
1563;SDS011;775;51.958;7.976;2023-02-02T04:07:00;13.50;;;2.37;;
1563;SDS011;775;51.958;7.976;2023-02-02T04:09:27;15.60;;;2.97;;
1563;SDS011;775;51.958;7.976;2023-02-02T04:11:56;15.83;;;3.00;;
1563;SDS011;775;51.958;7.976;2023-02-02T04:14:23;19.20;;;2.83;;
1563;SDS011;775;51.958;7.976;2023-02-02T04:16:50;15.73;;;3.10;;
1563;SDS011;775;51.958;7.976;2023-02-02T04:19:17;16.40;;;3.83;;
1563;SDS011;775;51.958;7.976;2023-02-02T04:21:44;19.13;;;3.37;;
1563;SDS011;775;51.958;7.976;2023-02-02T04:24:12;17.80;;;3.30;;
1563;SDS011;775;51.958;7.976;2023-02-02T04:26:39;18.43;;;3.53;;
1563;SDS011;775;51.958;7.976;2023-02-02T04:29:08;22.33;;;4.40;;
1563;SDS011;775;51.958;7.976;2023-02-02T04:31:35;17.10;;;3.90;;
1563;SDS011;775;51.958;7.976;2023-02-02T04:34:02;16.97;;;3.20;;
1563;SDS011;775;51.958;7.976;2023-02-02T04:36:29;18.53;;;3.70;;
1563;SDS011;775;51.958;7.976;2023-02-02T04:38:56;19.70;;;4.03;;
1563;SDS011;775;51.958;7.976;2023-02-02T04:41:23;22.03;;;3.70;;
1563;SDS011;775;51.958;7.976;2023-02-02T04:43:50;15.83;;;3.83;;
1563;SDS011;775;51.958;7.976;2023-02-02T04:46:19;19.43;;;4.23;;
1563;SDS011;775;51.958;7.976;2023-02-02T04:48:46;21.33;;;4.57;;
1563;SDS011;775;51.958;7.976;2023-02-02T04:51:14;18.17;;;3.20;;
1563;SDS011;775;51.958;7.976;2023-02-02T04:53:42;19.23;;;3.93;;
1563;SDS011;775;51.958;7.976;2023-02-02T04:56:11;19.97;;;4.53;;
1563;SDS011;775;51.958;7.976;2023-02-02T04:58:38;19.13;;;4.10;;
1563;SDS011;775;51.958;7.976;2023-02-02T05:01:09;21.93;;;2.83;;
1563;SDS011;775;51.958;7.976;2023-02-02T05:03:37;13.20;;;2.97;;
1563;SDS011;775;51.958;7.976;2023-02-02T05:06:05;13.60;;;2.50;;
1563;SDS011;775;51.958;7.976;2023-02-02T05:08:32;14.90;;;3.07;;
1563;SDS011;775;51.958;7.976;2023-02-02T05:10:59;14.17;;;2.70;;
1563;SDS011;775;51.958;7.976;2023-02-02T05:13:26;12.40;;;2.43;;
1563;SDS011;775;51.958;7.976;2023-02-02T05:15:53;12.13;;;2.20;;
1563;SDS011;775;51.958;7.976;2023-02-02T05:18:20;14.40;;;2.60;;
1563;SDS011;775;51.958;7.976;2023-02-02T05:20:50;17.50;;;2.00;;
1563;SDS011;775;51.958;7.976;2023-02-02T05:23:19;14.07;;;2.17;;
1563;SDS011;775;51.958;7.976;2023-02-02T05:25:50;12.57;;;2.77;;
1563;SDS011;775;51.958;7.976;2023-02-02T05:28:17;15.03;;;2.30;;
1563;SDS011;775;51.958;7.976;2023-02-02T05:30:44;12.83;;;2.70;;
1563;SDS011;775;51.958;7.976;2023-02-02T05:33:11;15.93;;;2.50;;
1563;SDS011;775;51.958;7.976;2023-02-02T05:35:38;14.47;;;2.30;;
1563;SDS011;775;51.958;7.976;2023-02-02T05:38:06;16.30;;;3.20;;
1563;SDS011;775;51.958;7.976;2023-02-02T05:40:33;13.57;;;3.00;;
1563;SDS011;775;51.958;7.976;2023-02-02T05:43:00;13.83;;;2.80;;
1563;SDS011;775;51.958;7.976;2023-02-02T05:45:28;12.83;;;2.80;;
1563;SDS011;775;51.958;7.976;2023-02-02T05:47:55;15.77;;;3.00;;
1563;SDS011;775;51.958;7.976;2023-02-02T05:50:22;14.47;;;3.10;;
1563;SDS011;775;51.958;7.976;2023-02-02T05:52:49;21.27;;;3.63;;
1563;SDS011;775;51.958;7.976;2023-02-02T05:55:18;14.67;;;2.83;;
1563;SDS011;775;51.958;7.976;2023-02-02T05:57:45;14.63;;;2.30;;
1563;SDS011;775;51.958;7.976;2023-02-02T06:00:12;11.57;;;2.47;;
1563;SDS011;775;51.958;7.976;2023-02-02T06:02:39;11.03;;;1.87;;
1563;SDS011;775;51.958;7.976;2023-02-02T06:05:07;12.93;;;1.90;;
1563;SDS011;775;51.958;7.976;2023-02-02T06:07:34;12.70;;;1.97;;
1563;SDS011;775;51.958;7.976;2023-02-02T06:10:01;18.80;;;2.30;;
1563;SDS011;775;51.958;7.976;2023-02-02T06:12:29;15.03;;;1.70;;
1563;SDS011;775;51.958;7.976;2023-02-02T06:14:57;11.77;;;1.57;;
1563;SDS011;775;51.958;7.976;2023-02-02T06:17:24;11.97;;;1.63;;
1563;SDS011;775;51.958;7.976;2023-02-02T06:19:51;11.03;;;2.00;;
1563;SDS011;775;51.958;7.976;2023-02-02T06:22:18;12.80;;;1.93;;
1563;SDS011;775;51.958;7.976;2023-02-02T06:24:45;14.23;;;2.43;;
1563;SDS011;775;51.958;7.976;2023-02-02T06:27:12;14.87;;;2.33;;
1563;SDS011;775;51.958;7.976;2023-02-02T06:29:40;15.33;;;2.13;;
1563;SDS011;775;51.958;7.976;2023-02-02T06:32:07;11.27;;;1.80;;
1563;SDS011;775;51.958;7.976;2023-02-02T06:34:34;11.83;;;1.67;;
1563;SDS011;775;51.958;7.976;2023-02-02T06:37:02;13.47;;;1.87;;
1563;SDS011;775;51.958;7.976;2023-02-02T06:39:29;14.47;;;2.50;;
1563;SDS011;775;51.958;7.976;2023-02-02T06:41:56;13.63;;;2.20;;
1563;SDS011;775;51.958;7.976;2023-02-02T06:44:23;13.10;;;2.70;;
1563;SDS011;775;51.958;7.976;2023-02-02T06:46:51;12.73;;;2.10;;
1563;SDS011;775;51.958;7.976;2023-02-02T06:49:18;12.83;;;2.23;;
1563;SDS011;775;51.958;7.976;2023-02-02T06:51:45;16.63;;;2.90;;
1563;SDS011;775;51.958;7.976;2023-02-02T06:54:13;14.60;;;2.70;;
1563;SDS011;775;51.958;7.976;2023-02-02T06:56:40;13.83;;;2.20;;
1563;SDS011;775;51.958;7.976;2023-02-02T06:59:07;15.77;;;2.00;;
1563;SDS011;775;51.958;7.976;2023-02-02T07:01:34;11.57;;;1.87;;
1563;SDS011;775;51.958;7.976;2023-02-02T07:04:02;11.57;;;2.40;;
1563;SDS011;775;51.958;7.976;2023-02-02T07:06:30;15.53;;;2.10;;
1563;SDS011;775;51.958;7.976;2023-02-02T07:08:57;15.07;;;1.93;;
1563;SDS011;775;51.958;7.976;2023-02-02T07:11:24;11.10;;;1.80;;
1563;SDS011;775;51.958;7.976;2023-02-02T07:13:51;10.90;;;1.73;;
1563;SDS011;775;51.958;7.976;2023-02-02T07:16:19;14.73;;;1.90;;
1563;SDS011;775;51.958;7.976;2023-02-02T07:18:46;13.63;;;1.60;;
1563;SDS011;775;51.958;7.976;2023-02-02T07:21:16;16.23;;;2.40;;
1563;SDS011;775;51.958;7.976;2023-02-02T07:23:43;15.03;;;1.73;;
1563;SDS011;775;51.958;7.976;2023-02-02T07:26:11;13.63;;;1.83;;
1563;SDS011;775;51.958;7.976;2023-02-02T07:28:38;14.33;;;2.07;;
1563;SDS011;775;51.958;7.976;2023-02-02T07:31:12;15.50;;;2.10;;
1563;SDS011;775;51.958;7.976;2023-02-02T07:33:40;16.10;;;2.03;;
1563;SDS011;775;51.958;7.976;2023-02-02T07:36:07;11.73;;;1.97;;
1563;SDS011;775;51.958;7.976;2023-02-02T07:38:35;12.03;;;2.13;;
1563;SDS011;775;51.958;7.976;2023-02-02T07:41:03;14.97;;;2.10;;
1563;SDS011;775;51.958;7.976;2023-02-02T07:43:30;17.20;;;2.97;;
1563;SDS011;775;51.958;7.976;2023-02-02T07:45:58;12.07;;;1.80;;
1563;SDS011;775;51.958;7.976;2023-02-02T07:48:27;18.57;;;2.10;;
1563;SDS011;775;51.958;7.976;2023-02-02T07:50:57;10.63;;;1.73;;
1563;SDS011;775;51.958;7.976;2023-02-02T07:53:24;15.67;;;2.07;;
1563;SDS011;775;51.958;7.976;2023-02-02T07:55:52;17.30;;;1.80;;
1563;SDS011;775;51.958;7.976;2023-02-02T07:58:20;11.50;;;1.87;;
1563;SDS011;775;51.958;7.976;2023-02-02T08:00:47;13.57;;;1.97;;
1563;SDS011;775;51.958;7.976;2023-02-02T08:03:14;11.67;;;2.13;;
1563;SDS011;775;51.958;7.976;2023-02-02T08:05:41;12.43;;;2.20;;
1563;SDS011;775;51.958;7.976;2023-02-02T08:08:08;11.30;;;2.00;;
1563;SDS011;775;51.958;7.976;2023-02-02T08:10:35;11.27;;;1.70;;
1563;SDS011;775;51.958;7.976;2023-02-02T08:13:03;13.73;;;1.80;;
1563;SDS011;775;51.958;7.976;2023-02-02T08:15:30;16.27;;;2.53;;
1563;SDS011;775;51.958;7.976;2023-02-02T08:17:57;13.17;;;1.93;;
1563;SDS011;775;51.958;7.976;2023-02-02T08:20:24;11.80;;;1.87;;
1563;SDS011;775;51.958;7.976;2023-02-02T08:22:52;14.03;;;2.43;;
1563;SDS011;775;51.958;7.976;2023-02-02T08:25:19;14.33;;;1.83;;
1563;SDS011;775;51.958;7.976;2023-02-02T08:27:46;15.73;;;2.53;;
1563;SDS011;775;51.958;7.976;2023-02-02T08:30:14;12.70;;;2.30;;
1563;SDS011;775;51.958;7.976;2023-02-02T08:32:41;11.60;;;1.87;;
1563;SDS011;775;51.958;7.976;2023-02-02T08:35:08;16.33;;;1.80;;
1563;SDS011;775;51.958;7.976;2023-02-02T08:37:35;12.70;;;2.50;;
1563;SDS011;775;51.958;7.976;2023-02-02T08:40:03;13.97;;;2.23;;
1563;SDS011;775;51.958;7.976;2023-02-02T08:42:30;12.43;;;2.00;;
1563;SDS011;775;51.958;7.976;2023-02-02T08:44:57;14.43;;;2.77;;
1563;SDS011;775;51.958;7.976;2023-02-02T08:47:26;17.43;;;1.97;;
1563;SDS011;775;51.958;7.976;2023-02-02T08:49:54;12.17;;;2.00;;
1563;SDS011;775;51.958;7.976;2023-02-02T08:52:21;12.23;;;2.50;;
1563;SDS011;775;51.958;7.976;2023-02-02T08:54:48;11.67;;;1.90;;
1563;SDS011;775;51.958;7.976;2023-02-02T08:57:15;14.47;;;1.70;;
1563;SDS011;775;51.958;7.976;2023-02-02T08:59:42;11.03;;;1.87;;
1563;SDS011;775;51.958;7.976;2023-02-02T09:02:10;13.43;;;2.00;;
1563;SDS011;775;51.958;7.976;2023-02-02T09:04:39;12.17;;;1.80;;
1563;SDS011;775;51.958;7.976;2023-02-02T09:07:09;10.37;;;1.63;;
1563;SDS011;775;51.958;7.976;2023-02-02T09:09:36;13.73;;;2.47;;
1563;SDS011;775;51.958;7.976;2023-02-02T09:12:03;12.33;;;2.10;;
1563;SDS011;775;51.958;7.976;2023-02-02T09:14:30;10.73;;;1.90;;
1563;SDS011;775;51.958;7.976;2023-02-02T09:16:57;13.87;;;2.07;;
1563;SDS011;775;51.958;7.976;2023-02-02T09:19:24;10.53;;;2.30;;
1563;SDS011;775;51.958;7.976;2023-02-02T09:21:53;10.93;;;2.07;;
1563;SDS011;775;51.958;7.976;2023-02-02T09:24:20;18.20;;;2.33;;
1563;SDS011;775;51.958;7.976;2023-02-02T09:26:47;11.10;;;1.93;;
1563;SDS011;775;51.958;7.976;2023-02-02T09:29:15;11.67;;;2.50;;
1563;SDS011;775;51.958;7.976;2023-02-02T09:31:42;12.27;;;2.13;;
1563;SDS011;775;51.958;7.976;2023-02-02T09:34:11;15.10;;;2.73;;
1563;SDS011;775;51.958;7.976;2023-02-02T09:36:39;13.67;;;1.90;;
1563;SDS011;775;51.958;7.976;2023-02-02T09:39:09;10.20;;;1.87;;
1563;SDS011;775;51.958;7.976;2023-02-02T09:41:53;15.27;;;2.03;;
1563;SDS011;775;51.958;7.976;2023-02-02T09:44:27;15.60;;;2.27;;
1563;SDS011;775;51.958;7.976;2023-02-02T09:46:59;12.40;;;2.67;;
1563;SDS011;775;51.958;7.976;2023-02-02T09:49:32;10.83;;;2.27;;
1563;SDS011;775;51.958;7.976;2023-02-02T09:52:02;13.00;;;2.10;;
1563;SDS011;775;51.958;7.976;2023-02-02T09:54:34;11.03;;;2.27;;
1563;SDS011;775;51.958;7.976;2023-02-02T09:57:03;12.87;;;2.90;;
1563;SDS011;775;51.958;7.976;2023-02-02T09:59:36;15.20;;;2.40;;
1563;SDS011;775;51.958;7.976;2023-02-02T10:02:10;14.43;;;2.70;;
1563;SDS011;775;51.958;7.976;2023-02-02T10:04:39;13.33;;;2.37;;
1563;SDS011;775;51.958;7.976;2023-02-02T10:07:10;11.63;;;2.67;;
1563;SDS011;775;51.958;7.976;2023-02-02T10:09:41;12.53;;;2.50;;
1563;SDS011;775;51.958;7.976;2023-02-02T10:12:16;11.70;;;2.17;;
1563;SDS011;775;51.958;7.976;2023-02-02T10:14:45;13.93;;;2.43;;
1563;SDS011;775;51.958;7.976;2023-02-02T10:17:22;14.27;;;3.77;;
1563;SDS011;775;51.958;7.976;2023-02-02T10:19:51;11.57;;;2.70;;
1563;SDS011;775;51.958;7.976;2023-02-02T10:22:22;17.43;;;3.53;;
1563;SDS011;775;51.958;7.976;2023-02-02T10:24:51;16.13;;;3.40;;
1563;SDS011;775;51.958;7.976;2023-02-02T10:27:19;12.10;;;2.70;;
1563;SDS011;775;51.958;7.976;2023-02-02T10:29:51;13.83;;;2.07;;
1563;SDS011;775;51.958;7.976;2023-02-02T10:32:20;14.47;;;2.70;;
1563;SDS011;775;51.958;7.976;2023-02-02T10:35:04;13.00;;;2.83;;
1563;SDS011;775;51.958;7.976;2023-02-02T10:37:35;14.57;;;2.90;;
1563;SDS011;775;51.958;7.976;2023-02-02T10:40:11;15.53;;;2.90;;
1563;SDS011;775;51.958;7.976;2023-02-02T10:42:42;12.47;;;2.70;;
1563;SDS011;775;51.958;7.976;2023-02-02T10:45:33;12.30;;;2.77;;
1563;SDS011;775;51.958;7.976;2023-02-02T10:48:01;17.13;;;3.10;;
1563;SDS011;775;51.958;7.976;2023-02-02T10:50:28;15.47;;;3.50;;
1563;SDS011;775;51.958;7.976;2023-02-02T10:52:59;12.57;;;3.03;;
1563;SDS011;775;51.958;7.976;2023-02-02T10:55:29;12.30;;;2.43;;
1563;SDS011;775;51.958;7.976;2023-02-02T10:58:03;14.87;;;2.80;;
1563;SDS011;775;51.958;7.976;2023-02-02T11:00:34;15.57;;;2.90;;
1563;SDS011;775;51.958;7.976;2023-02-02T11:03:04;12.73;;;3.07;;
1563;SDS011;775;51.958;7.976;2023-02-02T11:05:34;12.27;;;2.50;;
1563;SDS011;775;51.958;7.976;2023-02-02T11:08:19;11.50;;;2.10;;
1563;SDS011;775;51.958;7.976;2023-02-02T11:10:51;11.77;;;2.37;;
1563;SDS011;775;51.958;7.976;2023-02-02T11:13:21;11.07;;;1.97;;
1563;SDS011;775;51.958;7.976;2023-02-02T11:15:59;19.23;;;2.20;;
1563;SDS011;775;51.958;7.976;2023-02-02T11:18:39;12.20;;;1.90;;
1563;SDS011;775;51.958;7.976;2023-02-02T11:21:11;13.13;;;2.73;;
1563;SDS011;775;51.958;7.976;2023-02-02T11:23:49;11.70;;;2.20;;
1563;SDS011;775;51.958;7.976;2023-02-02T11:26:16;11.77;;;2.20;;
1563;SDS011;775;51.958;7.976;2023-02-02T11:28:44;11.93;;;2.40;;
1563;SDS011;775;51.958;7.976;2023-02-02T11:31:28;11.70;;;2.60;;
1563;SDS011;775;51.958;7.976;2023-02-02T11:34:04;16.90;;;2.97;;
1563;SDS011;775;51.958;7.976;2023-02-02T11:36:34;19.03;;;3.40;;
1563;SDS011;775;51.958;7.976;2023-02-02T11:39:13;15.13;;;2.87;;
1563;SDS011;775;51.958;7.976;2023-02-02T11:41:41;15.03;;;2.80;;
1563;SDS011;775;51.958;7.976;2023-02-02T11:44:10;13.50;;;3.00;;
1563;SDS011;775;51.958;7.976;2023-02-02T11:46:42;12.10;;;2.50;;
1563;SDS011;775;51.958;7.976;2023-02-02T11:49:15;20.07;;;3.33;;
1563;SDS011;775;51.958;7.976;2023-02-02T11:51:44;12.83;;;2.67;;
1563;SDS011;775;51.958;7.976;2023-02-02T11:54:22;10.83;;;2.10;;
1563;SDS011;775;51.958;7.976;2023-02-02T11:56:53;12.93;;;2.73;;
1563;SDS011;775;51.958;7.976;2023-02-02T11:59:25;13.50;;;2.27;;
1563;SDS011;775;51.958;7.976;2023-02-02T12:02:08;13.27;;;3.27;;
1563;SDS011;775;51.958;7.976;2023-02-02T12:04:37;12.43;;;3.07;;
1563;SDS011;775;51.958;7.976;2023-02-02T12:07:15;12.00;;;2.30;;
1563;SDS011;775;51.958;7.976;2023-02-02T12:09:43;12.20;;;2.10;;
1563;SDS011;775;51.958;7.976;2023-02-02T12:12:14;11.60;;;2.70;;
1563;SDS011;775;51.958;7.976;2023-02-02T12:14:46;11.50;;;2.40;;
1563;SDS011;775;51.958;7.976;2023-02-02T12:17:22;13.20;;;2.50;;
1563;SDS011;775;51.958;7.976;2023-02-02T12:20:05;11.37;;;2.10;;
1563;SDS011;775;51.958;7.976;2023-02-02T12:22:50;11.73;;;2.90;;
1563;SDS011;775;51.958;7.976;2023-02-02T12:28:05;12.47;;;2.90;;
1563;SDS011;775;51.958;7.976;2023-02-02T12:30:38;12.97;;;2.97;;
1563;SDS011;775;51.958;7.976;2023-02-02T12:33:12;12.87;;;2.47;;
1563;SDS011;775;51.958;7.976;2023-02-02T12:35:51;11.10;;;2.30;;
1563;SDS011;775;51.958;7.976;2023-02-02T12:38:25;10.90;;;2.70;;
1563;SDS011;775;51.958;7.976;2023-02-02T12:43:44;10.57;;;2.53;;
1563;SDS011;775;51.958;7.976;2023-02-02T12:46:18;10.90;;;2.57;;
1563;SDS011;775;51.958;7.976;2023-02-02T12:51:42;12.37;;;3.37;;
1563;SDS011;775;51.958;7.976;2023-02-02T12:54:15;11.07;;;2.50;;
1563;SDS011;775;51.958;7.976;2023-02-02T12:56:48;11.57;;;2.80;;
1563;SDS011;775;51.958;7.976;2023-02-02T12:59:20;13.40;;;2.80;;
1563;SDS011;775;51.958;7.976;2023-02-02T13:01:55;18.90;;;5.57;;
1563;SDS011;775;51.958;7.976;2023-02-02T13:04:28;13.03;;;2.83;;
1563;SDS011;775;51.958;7.976;2023-02-02T13:07:04;13.23;;;4.50;;
1563;SDS011;775;51.958;7.976;2023-02-02T13:09:34;16.47;;;6.33;;
1563;SDS011;775;51.958;7.976;2023-02-02T13:12:06;12.97;;;3.73;;
1563;SDS011;775;51.958;7.976;2023-02-02T13:14:34;13.83;;;3.20;;
1563;SDS011;775;51.958;7.976;2023-02-02T13:17:04;14.27;;;3.50;;
1563;SDS011;775;51.958;7.976;2023-02-02T13:19:33;13.33;;;4.00;;
1563;SDS011;775;51.958;7.976;2023-02-02T13:22:03;13.70;;;3.80;;
1563;SDS011;775;51.958;7.976;2023-02-02T13:24:32;15.73;;;3.23;;
1563;SDS011;775;51.958;7.976;2023-02-02T13:27:02;13.90;;;3.00;;
1563;SDS011;775;51.958;7.976;2023-02-02T13:29:32;17.00;;;4.93;;
1563;SDS011;775;51.958;7.976;2023-02-02T13:32:01;14.83;;;4.57;;
1563;SDS011;775;51.958;7.976;2023-02-02T13:34:34;13.17;;;3.23;;
1563;SDS011;775;51.958;7.976;2023-02-02T13:37:07;12.33;;;2.97;;
1563;SDS011;775;51.958;7.976;2023-02-02T13:39:37;11.73;;;3.43;;
1563;SDS011;775;51.958;7.976;2023-02-02T13:42:06;15.47;;;3.60;;
1563;SDS011;775;51.958;7.976;2023-02-02T13:44:41;11.50;;;3.10;;
1563;SDS011;775;51.958;7.976;2023-02-02T13:47:14;12.70;;;4.17;;
1563;SDS011;775;51.958;7.976;2023-02-02T13:49:42;14.50;;;4.50;;
1563;SDS011;775;51.958;7.976;2023-02-02T13:52:21;13.80;;;3.10;;
1563;SDS011;775;51.958;7.976;2023-02-02T13:57:40;16.77;;;5.90;;
1563;SDS011;775;51.958;7.976;2023-02-02T14:00:16;12.83;;;4.00;;
1563;SDS011;775;51.958;7.976;2023-02-02T14:02:45;15.40;;;4.87;;
1563;SDS011;775;51.958;7.976;2023-02-02T14:05:19;13.37;;;4.33;;
1563;SDS011;775;51.958;7.976;2023-02-02T14:07:52;18.97;;;4.70;;
1563;SDS011;775;51.958;7.976;2023-02-02T14:10:21;15.13;;;4.10;;
1563;SDS011;775;51.958;7.976;2023-02-02T14:12:49;17.37;;;4.87;;
1563;SDS011;775;51.958;7.976;2023-02-02T14:15:17;20.30;;;6.67;;
1563;SDS011;775;51.958;7.976;2023-02-02T14:17:53;20.00;;;9.10;;
1563;SDS011;775;51.958;7.976;2023-02-02T14:25:51;13.40;;;5.00;;
1563;SDS011;775;51.958;7.976;2023-02-02T14:28:43;13.80;;;4.33;;
1563;SDS011;775;51.958;7.976;2023-02-02T14:37:05;16.23;;;6.70;;
1563;SDS011;775;51.958;7.976;2023-02-02T14:39:36;24.30;;;9.30;;
1563;SDS011;775;51.958;7.976;2023-02-02T14:42:11;18.43;;;8.00;;
1563;SDS011;775;51.958;7.976;2023-02-02T14:45:04;16.97;;;5.80;;
1563;SDS011;775;51.958;7.976;2023-02-02T14:50:22;14.37;;;4.93;;
1563;SDS011;775;51.958;7.976;2023-02-02T14:52:57;15.17;;;5.83;;
1563;SDS011;775;51.958;7.976;2023-02-02T14:55:25;17.47;;;7.83;;
1563;SDS011;775;51.958;7.976;2023-02-02T14:57:54;29.33;;;15.30;;
1563;SDS011;775;51.958;7.976;2023-02-02T15:00:22;29.00;;;13.83;;
1563;SDS011;775;51.958;7.976;2023-02-02T15:02:50;23.90;;;13.60;;
1563;SDS011;775;51.958;7.976;2023-02-02T15:05:37;16.00;;;8.50;;
1563;SDS011;775;51.958;7.976;2023-02-02T15:08:21;15.53;;;6.77;;
1563;SDS011;775;51.958;7.976;2023-02-02T15:10:58;13.87;;;5.40;;
1563;SDS011;775;51.958;7.976;2023-02-02T15:13:27;13.07;;;4.33;;
1563;SDS011;775;51.958;7.976;2023-02-02T15:16:00;13.70;;;4.40;;
1563;SDS011;775;51.958;7.976;2023-02-02T15:18:31;14.73;;;4.10;;
1563;SDS011;775;51.958;7.976;2023-02-02T15:21:00;12.97;;;4.63;;
1563;SDS011;775;51.958;7.976;2023-02-02T15:23:32;16.90;;;5.30;;
1563;SDS011;775;51.958;7.976;2023-02-02T15:26:02;16.97;;;7.00;;
1563;SDS011;775;51.958;7.976;2023-02-02T15:28:34;15.33;;;5.00;;
1563;SDS011;775;51.958;7.976;2023-02-02T15:31:04;16.63;;;6.40;;
1563;SDS011;775;51.958;7.976;2023-02-02T15:33:34;19.63;;;6.90;;
1563;SDS011;775;51.958;7.976;2023-02-02T15:36:04;14.50;;;5.30;;
1563;SDS011;775;51.958;7.976;2023-02-02T15:38:33;16.23;;;5.63;;
1563;SDS011;775;51.958;7.976;2023-02-02T15:41:05;16.60;;;6.33;;
1563;SDS011;775;51.958;7.976;2023-02-02T15:43:34;21.17;;;7.67;;
1563;SDS011;775;51.958;7.976;2023-02-02T15:46:03;17.00;;;8.80;;
1563;SDS011;775;51.958;7.976;2023-02-02T15:48:31;16.90;;;7.80;;
1563;SDS011;775;51.958;7.976;2023-02-02T15:51:01;16.77;;;7.00;;
1563;SDS011;775;51.958;7.976;2023-02-02T15:53:31;17.30;;;7.97;;
1563;SDS011;775;51.958;7.976;2023-02-02T15:55:58;18.83;;;8.20;;
1563;SDS011;775;51.958;7.976;2023-02-02T15:58:29;16.57;;;9.03;;
1563;SDS011;775;51.958;7.976;2023-02-02T16:00:59;14.60;;;7.13;;
1563;SDS011;775;51.958;7.976;2023-02-02T16:03:29;17.70;;;8.27;;